createdAt,value
2018-01-26T00:00:50.933Z,0
2018-01-26T00:02:00.621Z,0
2018-01-26T00:03:10.566Z,0
2018-01-26T00:04:20.268Z,0
2018-01-26T00:05:30.208Z,0
2018-01-26T00:06:40.150Z,0
2018-01-26T00:07:50.122Z,0
2018-01-26T00:08:59.804Z,0
2018-01-26T00:10:09.758Z,0
2018-01-26T00:11:19.694Z,0
2018-01-26T00:12:29.635Z,0
2018-01-26T00:13:39.327Z,0
2018-01-26T00:14:49.271Z,0
2018-01-26T00:15:59.218Z,0
2018-01-26T00:17:08.966Z,0
2018-01-26T00:18:18.651Z,0
2018-01-26T00:19:28.600Z,0
2018-01-26T00:20:38.287Z,0
2018-01-26T00:21:48.226Z,0
2018-01-26T00:22:58.170Z,0
2018-01-26T00:24:08.370Z,0
2018-01-26T00:25:18.309Z,0
2018-01-26T00:26:28.255Z,0
2018-01-26T00:27:38.199Z,0
2018-01-26T00:28:47.891Z,0
2018-01-26T00:29:57.834Z,0
2018-01-26T00:31:07.773Z,0
2018-01-26T00:32:17.757Z,0
2018-01-26T00:33:27.697Z,0
2018-01-26T00:34:37.783Z,0
2018-01-26T00:35:47.782Z,0
2018-01-26T00:36:57.459Z,0
2018-01-26T00:38:07.145Z,0
2018-01-26T00:39:16.330Z,0
2018-01-26T00:40:26.273Z,0
2018-01-26T00:41:35.962Z,0
2018-01-26T00:42:45.657Z,0
2018-01-26T00:43:55.600Z,0
2018-01-26T00:45:05.550Z,0
2018-01-26T00:46:15.504Z,0
2018-01-26T00:47:25.456Z,0
2018-01-26T00:48:35.406Z,0
2018-01-26T00:49:45.345Z,0
2018-01-26T00:50:55.285Z,0
2018-01-26T00:52:05.246Z,0
2018-01-26T00:53:15.192Z,0
2018-01-26T00:54:25.143Z,0
2018-01-26T00:55:35.085Z,0
2018-01-26T00:56:45.053Z,0
2018-01-26T00:57:55.037Z,0
2018-01-26T00:59:04.975Z,0
2018-01-26T01:00:15.153Z,0
2018-01-26T01:01:25.097Z,0
2018-01-26T01:02:34.783Z,0
2018-01-26T01:03:44.473Z,0
2018-01-26T01:04:54.410Z,0
2018-01-26T01:06:04.365Z,0
2018-01-26T01:07:14.078Z,0
2018-01-26T01:08:24.075Z,0
2018-01-26T01:09:34.020Z,0
2018-01-26T01:10:43.964Z,0
2018-01-26T01:11:53.649Z,0
2018-01-26T01:13:03.600Z,0
2018-01-26T01:14:13.543Z,0
2018-01-26T01:15:23.497Z,0
2018-01-26T01:16:33.462Z,0
2018-01-26T01:17:43.447Z,0
2018-01-26T01:18:53.130Z,0
2018-01-26T01:20:03.080Z,0
2018-01-26T01:21:13.036Z,0
2018-01-26T01:22:22.473Z,0
2018-01-26T01:23:31.904Z,0
2018-01-26T01:24:41.844Z,0
2018-01-26T01:25:51.286Z,0
2018-01-26T01:27:00.204Z,0
2018-01-26T01:28:10.142Z,0
2018-01-26T01:29:19.832Z,0
2018-01-26T01:30:29.515Z,0
2018-01-26T01:31:39.469Z,0
2018-01-26T01:32:48.908Z,0
2018-01-26T01:33:58.083Z,0
2018-01-26T01:35:08.058Z,0
2018-01-26T01:36:17.490Z,0
2018-01-26T01:37:27.430Z,0
2018-01-26T01:38:37.369Z,0
2018-01-26T01:39:47.061Z,0
2018-01-26T01:40:56.750Z,0
2018-01-26T01:42:05.926Z,0
2018-01-26T01:43:15.869Z,0
2018-01-26T01:44:25.305Z,0
2018-01-26T01:45:34.985Z,0
2018-01-26T01:46:44.925Z,0
2018-01-26T01:47:54.877Z,0
2018-01-26T01:49:04.827Z,0
2018-01-26T01:50:14.779Z,0
2018-01-26T01:51:24.992Z,0
2018-01-26T01:52:34.698Z,0
2018-01-26T01:53:44.650Z,0
2018-01-26T01:54:54.592Z,0
2018-01-26T01:56:04.288Z,0
2018-01-26T01:57:14.238Z,0
2018-01-26T01:58:24.168Z,0
2018-01-26T01:59:33.863Z,0
2018-01-26T02:00:43.805Z,0
2018-01-26T02:01:54.000Z,0
2018-01-26T02:03:03.944Z,0
2018-01-26T02:04:13.889Z,0
2018-01-26T02:05:23.835Z,0
2018-01-26T02:06:33.281Z,0
2018-01-26T02:07:43.228Z,0
2018-01-26T02:08:53.179Z,0
2018-01-26T02:10:02.855Z,0
2018-01-26T02:11:12.812Z,0
2018-01-26T02:12:22.761Z,0
2018-01-26T02:13:32.753Z,0
2018-01-26T02:14:42.695Z,0
2018-01-26T02:15:52.134Z,0
2018-01-26T02:17:02.085Z,0
2018-01-26T02:18:12.033Z,0
2018-01-26T02:19:21.709Z,0
2018-01-26T02:20:31.654Z,0
2018-01-26T02:21:41.349Z,0
2018-01-26T02:22:51.300Z,0
2018-01-26T02:24:00.736Z,0
2018-01-26T02:25:10.684Z,0
2018-01-26T02:26:20.628Z,0
2018-01-26T02:27:30.572Z,0
2018-01-26T02:28:40.529Z,0
2018-01-26T02:29:50.490Z,0
2018-01-26T02:31:00.425Z,0
2018-01-26T02:32:10.112Z,0
2018-01-26T02:33:20.067Z,0
2018-01-26T02:34:30.030Z,0
2018-01-26T02:35:39.968Z,0
2018-01-26T02:36:49.908Z,0
2018-01-26T02:37:59.862Z,0
2018-01-26T02:39:09.554Z,0
2018-01-26T02:40:19.243Z,0
2018-01-26T02:41:29.197Z,0
2018-01-26T02:42:38.893Z,0
2018-01-26T02:43:48.836Z,0
2018-01-26T02:44:58.786Z,0
2018-01-26T02:46:08.736Z,0
2018-01-26T02:47:18.431Z,0
2018-01-26T02:48:28.135Z,0
2018-01-26T02:49:37.561Z,0
2018-01-26T02:50:47.511Z,0
2018-01-26T02:51:57.452Z,0
2018-01-26T02:53:07.410Z,0
2018-01-26T02:54:17.360Z,0
2018-01-26T02:55:27.408Z,0
2018-01-26T02:56:37.354Z,0
2018-01-26T02:57:46.785Z,0
2018-01-26T02:58:56.730Z,0
2018-01-26T03:00:06.689Z,0
2018-01-26T03:01:16.375Z,0
2018-01-26T03:02:26.343Z,0
2018-01-26T03:03:36.035Z,0
2018-01-26T03:04:45.718Z,0
2018-01-26T03:05:55.653Z,0
2018-01-26T03:07:05.344Z,0
2018-01-26T03:08:15.028Z,0
2018-01-26T03:09:24.451Z,0
2018-01-26T03:10:34.388Z,0
2018-01-26T03:11:44.345Z,0
2018-01-26T03:12:54.030Z,0
2018-01-26T03:14:03.967Z,0
2018-01-26T03:15:13.938Z,0
2018-01-26T03:16:23.901Z,0
2018-01-26T03:17:33.589Z,0
2018-01-26T03:18:43.274Z,0
2018-01-26T03:19:52.962Z,0
2018-01-26T03:21:02.912Z,0
2018-01-26T03:22:12.863Z,0
2018-01-26T03:23:22.542Z,0
2018-01-26T03:24:32.486Z,0
2018-01-26T03:25:42.440Z,0
2018-01-26T03:26:52.527Z,0
2018-01-26T03:28:02.514Z,0
2018-01-26T03:29:12.185Z,0
2018-01-26T03:30:22.145Z,0
2018-01-26T03:31:32.115Z,0
2018-01-26T03:32:41.555Z,0
2018-01-26T03:33:51.504Z,0
2018-01-26T03:35:01.185Z,0
2018-01-26T03:36:11.134Z,0
2018-01-26T03:37:21.075Z,0
2018-01-26T03:38:31.021Z,0
2018-01-26T03:39:40.716Z,0
2018-01-26T03:40:50.675Z,0
2018-01-26T03:42:00.624Z,0
2018-01-26T03:43:10.576Z,0
2018-01-26T03:44:20.510Z,0
2018-01-26T03:45:30.451Z,0
2018-01-26T03:46:40.394Z,0
2018-01-26T03:47:50.396Z,0
2018-01-26T03:49:00.348Z,0
2018-01-26T03:50:10.047Z,0
2018-01-26T03:51:19.989Z,0
2018-01-26T03:52:30.202Z,0
2018-01-26T03:53:40.163Z,0
2018-01-26T03:54:49.858Z,0
2018-01-26T03:55:59.552Z,0
2018-01-26T03:57:08.986Z,0
2018-01-26T03:58:19.187Z,0
2018-01-26T03:59:29.147Z,0
2018-01-26T04:00:38.843Z,0
2018-01-26T04:01:48.263Z,0
2018-01-26T04:02:58.202Z,0
2018-01-26T04:04:08.152Z,0
2018-01-26T04:05:17.577Z,0
2018-01-26T04:06:27.008Z,0
2018-01-26T04:07:36.960Z,0
2018-01-26T04:08:46.951Z,0
2018-01-26T04:09:56.630Z,0
2018-01-26T04:11:06.323Z,0
2018-01-26T04:12:16.004Z,0
2018-01-26T04:13:25.947Z,0
2018-01-26T04:14:35.895Z,0
2018-01-26T04:15:45.575Z,0
2018-01-26T04:16:55.524Z,0
2018-01-26T04:18:05.469Z,0
2018-01-26T04:19:15.152Z,0
2018-01-26T04:20:24.846Z,0
2018-01-26T04:21:34.794Z,0
2018-01-26T04:22:44.478Z,0
2018-01-26T04:23:54.420Z,0
2018-01-26T04:25:04.383Z,0
2018-01-26T04:26:14.067Z,0
2018-01-26T04:27:24.050Z,0
2018-01-26T04:28:33.735Z,0
2018-01-26T04:29:43.679Z,0
2018-01-26T04:30:53.870Z,0
2018-01-26T04:32:03.574Z,0
2018-01-26T04:33:13.317Z,0
2018-01-26T04:34:23.000Z,0
2018-01-26T04:35:32.962Z,0
2018-01-26T04:36:42.904Z,0
2018-01-26T04:37:52.618Z,0
2018-01-26T04:39:02.047Z,0
2018-01-26T04:40:11.990Z,0
2018-01-26T04:41:21.928Z,0
2018-01-26T04:42:31.909Z,0
2018-01-26T04:43:41.852Z,0
2018-01-26T04:44:51.805Z,0
2018-01-26T04:46:01.748Z,0
2018-01-26T04:47:11.439Z,0
2018-01-26T04:48:21.391Z,0
2018-01-26T04:49:31.343Z,0
2018-01-26T04:50:41.287Z,0
2018-01-26T04:51:51.250Z,0
2018-01-26T04:53:01.197Z,0
2018-01-26T04:54:11.131Z,0
2018-01-26T04:55:21.071Z,0
2018-01-26T04:56:31.043Z,0
2018-01-26T04:57:40.728Z,0
2018-01-26T04:58:50.463Z,0
2018-01-26T05:00:00.447Z,0
2018-01-26T05:01:10.400Z,0
2018-01-26T05:02:20.089Z,0
2018-01-26T05:03:30.089Z,0
2018-01-26T05:04:40.083Z,0
2018-01-26T05:05:50.027Z,0
2018-01-26T05:06:59.970Z,0
2018-01-26T05:08:09.663Z,0
2018-01-26T05:09:19.610Z,0
2018-01-26T05:10:29.284Z,0
2018-01-26T05:11:39.231Z,0
2018-01-26T05:12:49.182Z,0
2018-01-26T05:13:59.127Z,0
2018-01-26T05:15:09.074Z,0
2018-01-26T05:16:19.028Z,0
2018-01-26T05:17:28.775Z,0
2018-01-26T05:18:38.720Z,0
2018-01-26T05:19:48.145Z,0
2018-01-26T05:20:58.088Z,0
2018-01-26T05:22:08.034Z,0
2018-01-26T05:23:17.731Z,0
2018-01-26T05:24:27.694Z,0
2018-01-26T05:25:37.634Z,0
2018-01-26T05:26:47.332Z,0
2018-01-26T05:27:57.028Z,0
2018-01-26T05:29:07.077Z,0
2018-01-26T05:30:17.036Z,0
2018-01-26T05:31:26.992Z,0
2018-01-26T05:32:36.417Z,0
2018-01-26T05:33:46.357Z,0
2018-01-26T05:34:56.571Z,0
2018-01-26T05:36:06.507Z,0
2018-01-26T05:37:16.454Z,0
2018-01-26T05:38:25.877Z,0
2018-01-26T05:39:35.820Z,0
2018-01-26T05:40:45.543Z,0
2018-01-26T05:41:55.483Z,0
2018-01-26T05:43:05.430Z,0
2018-01-26T05:44:15.373Z,0
2018-01-26T05:45:25.315Z,0
2018-01-26T05:46:35.258Z,0
2018-01-26T05:47:45.208Z,0
2018-01-26T05:48:55.156Z,0
2018-01-26T05:50:05.154Z,0
2018-01-26T05:51:15.360Z,0
2018-01-26T05:52:25.310Z,0
2018-01-26T05:53:35.258Z,0
2018-01-26T05:54:45.195Z,0
2018-01-26T05:55:54.897Z,0
2018-01-26T05:57:04.845Z,0
2018-01-26T05:58:14.799Z,0
2018-01-26T05:59:24.757Z,0
2018-01-26T06:00:34.717Z,0
2018-01-26T06:01:44.407Z,0
2018-01-26T06:02:54.103Z,0
2018-01-26T06:04:04.043Z,0
2018-01-26T06:05:13.821Z,0
2018-01-26T06:06:23.850Z,0
2018-01-26T06:07:33.811Z,0
2018-01-26T06:08:43.752Z,0
2018-01-26T06:09:53.692Z,0
2018-01-26T06:11:03.656Z,0
2018-01-26T06:12:13.362Z,0
2018-01-26T06:13:23.292Z,0
2018-01-26T06:14:33.281Z,0
2018-01-26T06:15:43.223Z,0
2018-01-26T06:16:52.906Z,0
2018-01-26T06:18:02.602Z,0
2018-01-26T06:19:12.542Z,0
2018-01-26T06:20:22.477Z,0
2018-01-26T06:21:32.489Z,0
2018-01-26T06:22:42.436Z,0
2018-01-26T06:23:52.389Z,0
2018-01-26T06:25:01.813Z,0
2018-01-26T06:26:11.241Z,0
2018-01-26T06:27:21.214Z,0
2018-01-26T06:28:31.165Z,0
2018-01-26T06:29:41.108Z,4
2018-01-26T06:30:51.045Z,4
2018-01-26T06:32:00.979Z,8
2018-01-26T06:33:10.936Z,4
2018-01-26T06:34:20.886Z,8
2018-01-26T06:35:30.322Z,4
2018-01-26T06:36:40.261Z,8
2018-01-26T06:37:49.951Z,12
2018-01-26T06:38:59.904Z,12
2018-01-26T06:40:09.601Z,16
2018-01-26T06:41:19.558Z,16
2018-01-26T06:42:29.253Z,20
2018-01-26T06:43:39.213Z,20
2018-01-26T06:44:49.178Z,24
2018-01-26T06:45:59.171Z,28
2018-01-26T06:47:09.143Z,32
2018-01-26T06:48:18.849Z,36
2018-01-26T06:49:28.623Z,44
2018-01-26T06:50:38.328Z,44
2018-01-26T06:51:48.274Z,48
2018-01-26T06:52:58.228Z,52
2018-01-26T06:54:08.173Z,56
2018-01-26T06:55:18.127Z,64
2018-01-26T06:56:27.807Z,72
2018-01-26T06:57:37.766Z,84
2018-01-26T06:58:47.461Z,100
2018-01-26T06:59:57.421Z,104
2018-01-26T07:01:07.127Z,112
2018-01-26T07:02:16.819Z,124
2018-01-26T07:03:26.773Z,132
2018-01-26T07:04:36.965Z,140
2018-01-26T07:05:46.913Z,148
2018-01-26T07:06:56.589Z,148
2018-01-26T07:08:06.557Z,160
2018-01-26T07:09:16.247Z,164
2018-01-26T07:10:25.686Z,176
2018-01-26T07:11:35.376Z,204
2018-01-26T07:12:45.338Z,236
2018-01-26T07:13:54.789Z,248
2018-01-26T07:15:04.508Z,272
2018-01-26T07:16:14.206Z,284
2018-01-26T07:17:24.203Z,312
2018-01-26T07:18:33.907Z,344
2018-01-26T07:19:43.595Z,348
2018-01-26T07:20:53.542Z,356
2018-01-26T07:22:03.489Z,372
2018-01-26T07:23:13.429Z,380
2018-01-26T07:24:23.369Z,380
2018-01-26T07:25:33.111Z,380
2018-01-26T07:26:42.564Z,376
2018-01-26T07:27:52.507Z,384
2018-01-26T07:29:02.461Z,400
2018-01-26T07:30:12.423Z,424
2018-01-26T07:31:22.430Z,464
2018-01-26T07:32:32.397Z,512
2018-01-26T07:33:42.077Z,568
2018-01-26T07:34:51.767Z,604
2018-01-26T07:36:01.715Z,632
2018-01-26T07:37:11.409Z,632
2018-01-26T07:38:21.092Z,640
2018-01-26T07:39:30.551Z,612
2018-01-26T07:40:39.981Z,584
2018-01-26T07:41:49.934Z,588
2018-01-26T07:42:59.645Z,616
2018-01-26T07:44:09.377Z,664
2018-01-26T07:45:19.074Z,736
2018-01-26T07:46:28.772Z,816
2018-01-26T07:47:38.722Z,852
2018-01-26T07:48:48.660Z,832
2018-01-26T07:49:58.113Z,832
2018-01-26T07:51:08.064Z,856
2018-01-26T07:52:17.998Z,904
2018-01-26T07:53:27.943Z,924
2018-01-26T07:54:37.892Z,900
2018-01-26T07:55:47.087Z,856
2018-01-26T07:56:56.260Z,860
2018-01-26T07:58:06.217Z,888
2018-01-26T07:59:16.180Z,928
2018-01-26T08:00:26.184Z,988
2018-01-26T08:01:36.155Z,1020
2018-01-26T08:02:46.137Z,1016
2018-01-26T08:03:56.085Z,1016
2018-01-26T08:05:05.781Z,960
2018-01-26T08:06:15.730Z,952
2018-01-26T08:07:25.691Z,980
2018-01-26T08:08:35.395Z,960
2018-01-26T08:09:44.837Z,996
2018-01-26T08:10:54.276Z,1048
2018-01-26T08:12:04.233Z,1092
2018-01-26T08:13:14.245Z,1116
2018-01-26T08:14:24.547Z,1108
2018-01-26T08:15:34.522Z,1160
2018-01-26T08:16:44.467Z,1188
2018-01-26T08:17:54.417Z,1264
2018-01-26T08:19:04.374Z,1260
2018-01-26T08:20:14.188Z,1212
2018-01-26T08:21:23.998Z,1180
2018-01-26T08:22:33.772Z,1108
2018-01-26T08:23:43.513Z,1036
2018-01-26T08:24:53.215Z,1032
2018-01-26T08:26:03.166Z,1012
2018-01-26T08:27:13.108Z,1012
2018-01-26T08:28:23.075Z,1000
2018-01-26T08:29:33.020Z,968
2018-01-26T08:30:42.709Z,1008
2018-01-26T08:31:52.401Z,1104
2018-01-26T08:33:02.377Z,1128
2018-01-26T08:34:12.346Z,1060
2018-01-26T08:35:22.036Z,1180
2018-01-26T08:36:32.002Z,1172
2018-01-26T08:37:41.972Z,1216
2018-01-26T08:38:51.930Z,1268
2018-01-26T08:40:01.870Z,1284
2018-01-26T08:41:11.833Z,1292
2018-01-26T08:42:21.792Z,1324
2018-01-26T08:43:31.744Z,1352
2018-01-26T08:44:41.707Z,1316
2018-01-26T08:45:51.651Z,1360
2018-01-26T08:47:01.605Z,1584
2018-01-26T08:48:11.559Z,1712
2018-01-26T08:49:21.315Z,1768
2018-01-26T08:50:31.027Z,1812
2018-01-26T08:51:41.026Z,1868
2018-01-26T08:52:50.457Z,2016
2018-01-26T08:54:00.394Z,2156
2018-01-26T08:55:10.339Z,2144
2018-01-26T08:56:20.047Z,2260
2018-01-26T08:57:30.127Z,2400
2018-01-26T08:58:39.558Z,2300
2018-01-26T08:59:49.275Z,2204
2018-01-26T09:00:58.973Z,2032
2018-01-26T09:02:08.965Z,2080
2018-01-26T09:03:18.942Z,2076
2018-01-26T09:04:28.923Z,1972
2018-01-26T09:05:38.687Z,1932
2018-01-26T09:06:48.873Z,1780
2018-01-26T09:07:58.570Z,1676
2018-01-26T09:09:08.315Z,1676
2018-01-26T09:10:18.274Z,1732
2018-01-26T09:11:28.271Z,1656
2018-01-26T09:12:38.233Z,1708
2018-01-26T09:13:48.188Z,1908
2018-01-26T09:14:58.120Z,2108
2018-01-26T09:16:07.833Z,2296
2018-01-26T09:17:17.884Z,2412
2018-01-26T09:18:27.848Z,2548
2018-01-26T09:19:37.556Z,2596
2018-01-26T09:20:47.252Z,2396
2018-01-26T09:21:56.947Z,2300
2018-01-26T09:23:06.652Z,2316
2018-01-26T09:24:16.624Z,2368
2018-01-26T09:25:26.598Z,2368
2018-01-26T09:26:36.082Z,2348
2018-01-26T09:27:45.791Z,2560
2018-01-26T09:28:55.752Z,2680
2018-01-26T09:30:05.443Z,2796
2018-01-26T09:31:15.512Z,2676
2018-01-26T09:32:25.481Z,2572
2018-01-26T09:33:35.453Z,2480
2018-01-26T09:34:45.407Z,2616
2018-01-26T09:35:55.411Z,3028
2018-01-26T09:37:05.445Z,3564
2018-01-26T09:38:15.408Z,4000
2018-01-26T09:39:25.380Z,4320
2018-01-26T09:40:35.339Z,4372
2018-01-26T09:41:45.029Z,4456
2018-01-26T09:42:55.117Z,4688
2018-01-26T09:44:04.844Z,4552
2018-01-26T09:45:14.556Z,4152
2018-01-26T09:46:24.525Z,3876
2018-01-26T09:47:34.234Z,3808
2018-01-26T09:48:44.306Z,4056
2018-01-26T09:49:54.272Z,4404
2018-01-26T09:51:03.975Z,4572
2018-01-26T09:52:13.448Z,4248
2018-01-26T09:53:23.395Z,3848
2018-01-26T09:54:33.322Z,3732
2018-01-26T09:55:43.275Z,3780
2018-01-26T09:56:53.231Z,3596
2018-01-26T09:58:02.929Z,3744
2018-01-26T09:59:12.635Z,3980
2018-01-26T10:00:22.379Z,3992
2018-01-26T10:01:32.063Z,3648
2018-01-26T10:02:42.007Z,3384
2018-01-26T10:03:51.981Z,2956
2018-01-26T10:05:01.947Z,2604
2018-01-26T10:06:11.994Z,2536
2018-01-26T10:07:21.423Z,2768
2018-01-26T10:08:31.124Z,3000
2018-01-26T10:09:40.584Z,3048
2018-01-26T10:10:50.538Z,3016
2018-01-26T10:12:00.222Z,2904
2018-01-26T10:13:10.223Z,2796
2018-01-26T10:14:19.916Z,2628
2018-01-26T10:15:29.881Z,2532
2018-01-26T10:16:39.888Z,2464
2018-01-26T10:17:49.637Z,2456
2018-01-26T10:18:59.575Z,2628
2018-01-26T10:20:09.541Z,2556
2018-01-26T10:21:19.239Z,2656
2018-01-26T10:22:29.195Z,2896
2018-01-26T10:23:38.889Z,3124
2018-01-26T10:24:48.587Z,3096
2018-01-26T10:25:58.570Z,3120
2018-01-26T10:27:08.522Z,3132
2018-01-26T10:28:18.538Z,3148
2018-01-26T10:29:28.523Z,3320
2018-01-26T10:30:38.232Z,3216
2018-01-26T10:31:48.209Z,3128
2018-01-26T10:32:58.179Z,3260
2018-01-26T10:34:08.248Z,3324
2018-01-26T10:35:18.259Z,3284
2018-01-26T10:36:28.001Z,3308
2018-01-26T10:37:37.694Z,3248
2018-01-26T10:38:47.658Z,3492
2018-01-26T10:39:58.017Z,3624
2018-01-26T10:41:07.970Z,3800
2018-01-26T10:42:17.930Z,3912
2018-01-26T10:43:27.626Z,3740
2018-01-26T10:44:37.575Z,3736
2018-01-26T10:45:47.579Z,3632
2018-01-26T10:46:57.278Z,3560
2018-01-26T10:48:07.241Z,3496
2018-01-26T10:49:17.009Z,3424
2018-01-26T10:50:26.990Z,3152
2018-01-26T10:51:36.733Z,3116
2018-01-26T10:52:46.676Z,3096
2018-01-26T10:53:56.384Z,3028
2018-01-26T10:55:06.116Z,2920
2018-01-26T10:56:15.814Z,2844
2018-01-26T10:57:25.801Z,2896
2018-01-26T10:58:35.496Z,2976
2018-01-26T10:59:45.182Z,3132
2018-01-26T11:00:55.181Z,3388
2018-01-26T11:02:04.885Z,3660
2018-01-26T11:03:14.911Z,3880
2018-01-26T11:04:24.938Z,3824
2018-01-26T11:05:34.886Z,3992
2018-01-26T11:06:44.870Z,3896
2018-01-26T11:07:54.827Z,3864
2018-01-26T11:09:04.590Z,3928
2018-01-26T11:10:14.601Z,3756
2018-01-26T11:11:24.363Z,4140
2018-01-26T11:12:34.342Z,3888
2018-01-26T11:13:44.045Z,3808
2018-01-26T11:14:53.997Z,4000
2018-01-26T11:16:03.953Z,3676
2018-01-26T11:17:13.911Z,3804
2018-01-26T11:18:23.877Z,4028
2018-01-26T11:19:33.581Z,3896
2018-01-26T11:20:43.555Z,3940
2018-01-26T11:21:53.250Z,4100
2018-01-26T11:23:03.222Z,4064
2018-01-26T11:24:13.179Z,3952
2018-01-26T11:25:23.147Z,3968
2018-01-26T11:26:33.157Z,3996
2018-01-26T11:27:43.116Z,4056
2018-01-26T11:28:53.094Z,4228
2018-01-26T11:30:02.787Z,4372
2018-01-26T11:31:12.737Z,4788
2018-01-26T11:32:22.782Z,5108
2018-01-26T11:33:32.744Z,5336
2018-01-26T11:34:42.719Z,5156
2018-01-26T11:35:52.432Z,5216
2018-01-26T11:37:02.407Z,5176
2018-01-26T11:38:12.354Z,5376
2018-01-26T11:39:22.318Z,5548
2018-01-26T11:40:32.013Z,5612
2018-01-26T11:41:41.982Z,5600
2018-01-26T11:42:51.946Z,5828
2018-01-26T11:44:01.912Z,5956
2018-01-26T11:45:11.620Z,6272
2018-01-26T11:46:21.602Z,6440
2018-01-26T11:47:31.537Z,6464
2018-01-26T11:48:41.229Z,6404
2018-01-26T11:49:51.191Z,6392
2018-01-26T11:51:01.210Z,6668
2018-01-26T11:52:11.170Z,6912
2018-01-26T11:53:21.128Z,6456
2018-01-26T11:54:31.085Z,6436
2018-01-26T11:55:40.533Z,6208
2018-01-26T11:56:50.488Z,5992
2018-01-26T11:58:00.591Z,5944
2018-01-26T11:59:10.551Z,5912
2018-01-26T12:00:20.524Z,5544
2018-01-26T12:01:30.480Z,5228
2018-01-26T12:02:40.188Z,5468
2018-01-26T12:03:49.906Z,5228
2018-01-26T12:04:59.909Z,4828
2018-01-26T12:06:09.892Z,4760
2018-01-26T12:07:19.600Z,4776
2018-01-26T12:08:29.033Z,4676
2018-01-26T12:09:38.981Z,4500
2018-01-26T12:10:48.938Z,4268
2018-01-26T12:11:58.893Z,3824
2018-01-26T12:13:08.872Z,3716
2018-01-26T12:14:18.859Z,3580
2018-01-26T12:15:28.823Z,3572
2018-01-26T12:16:38.767Z,3524
2018-01-26T12:17:48.212Z,3396
2018-01-26T12:18:58.208Z,3412
2018-01-26T12:20:08.159Z,3512
2018-01-26T12:21:18.134Z,3580
2018-01-26T12:22:27.840Z,3396
2018-01-26T12:23:37.805Z,3296
2018-01-26T12:24:47.515Z,3356
2018-01-26T12:25:56.968Z,3320
2018-01-26T12:27:06.914Z,3148
2018-01-26T12:28:16.939Z,3000
2018-01-26T12:29:26.902Z,3252
2018-01-26T12:30:36.881Z,3304
2018-01-26T12:31:46.844Z,3304
2018-01-26T12:32:56.541Z,3668
2018-01-26T12:34:06.598Z,3752
2018-01-26T12:35:16.821Z,3772
2018-01-26T12:36:26.530Z,3600
2018-01-26T12:37:36.490Z,3668
2018-01-26T12:38:46.214Z,3992
2018-01-26T12:39:56.181Z,3884
2018-01-26T12:41:06.215Z,4920
2018-01-26T12:42:16.204Z,4912
2018-01-26T12:43:26.197Z,6180
2018-01-26T12:44:36.190Z,5980
2018-01-26T12:45:45.889Z,6016
2018-01-26T12:46:55.885Z,5984
2018-01-26T12:48:05.348Z,5688
2018-01-26T12:49:15.315Z,4984
2018-01-26T12:50:25.316Z,5076
2018-01-26T12:51:35.337Z,4848
2018-01-26T12:52:45.477Z,4724
2018-01-26T12:53:55.481Z,4644
2018-01-26T12:55:05.216Z,4852
2018-01-26T12:56:14.962Z,5364
2018-01-26T12:57:24.907Z,5684
2018-01-26T12:58:34.954Z,5432
2018-01-26T12:59:44.944Z,4904
2018-01-26T13:00:54.676Z,4404
2018-01-26T13:02:04.585Z,4552
2018-01-26T13:03:14.570Z,4828
2018-01-26T13:04:24.590Z,4612
2018-01-26T13:05:34.590Z,3960
2018-01-26T13:06:44.567Z,3516
2018-01-26T13:07:54.584Z,3528
2018-01-26T13:09:04.326Z,4316
2018-01-26T13:10:14.359Z,4668
2018-01-26T13:11:24.324Z,4892
2018-01-26T13:12:34.291Z,4856
2018-01-26T13:13:44.267Z,4816
2018-01-26T13:14:53.992Z,4780
2018-01-26T13:16:03.963Z,4332
2018-01-26T13:17:13.913Z,4480
2018-01-26T13:18:23.892Z,4976
2018-01-26T13:19:33.889Z,4852
2018-01-26T13:20:44.117Z,4564
2018-01-26T13:21:54.103Z,4660
2018-01-26T13:23:04.075Z,4764
2018-01-26T13:24:13.799Z,4708
2018-01-26T13:25:23.904Z,4484
2018-01-26T13:26:33.620Z,4288
2018-01-26T13:27:43.619Z,4236
2018-01-26T13:28:53.328Z,4156
2018-01-26T13:30:03.319Z,4104
2018-01-26T13:31:13.278Z,4204
2018-01-26T13:32:22.467Z,3928
2018-01-26T13:33:32.432Z,3156
2018-01-26T13:34:42.142Z,2696
2018-01-26T13:35:51.838Z,2576
2018-01-26T13:37:01.612Z,2616
2018-01-26T13:38:11.333Z,2116
2018-01-26T13:39:21.056Z,1896
2018-01-26T13:40:31.037Z,1672
2018-01-26T13:41:41.004Z,1556
2018-01-26T13:42:50.711Z,1632
2018-01-26T13:44:00.715Z,1744
2018-01-26T13:45:10.667Z,1812
2018-01-26T13:46:20.631Z,1864
2018-01-26T13:47:30.337Z,1856
2018-01-26T13:48:40.036Z,1800
2018-01-26T13:49:50.002Z,1724
2018-01-26T13:50:59.976Z,1840
2018-01-26T13:52:09.689Z,2192
2018-01-26T13:53:19.636Z,2728
2018-01-26T13:54:29.594Z,3348
2018-01-26T13:55:39.561Z,3660
2018-01-26T13:56:49.537Z,3684
2018-01-26T13:57:59.267Z,3432
2018-01-26T13:59:09.237Z,3032
2018-01-26T14:00:19.213Z,3044
2018-01-26T14:01:29.254Z,3416
2018-01-26T14:02:39.212Z,3884
2018-01-26T14:03:48.654Z,3920
2018-01-26T14:04:58.343Z,3760
2018-01-26T14:06:08.101Z,3776
2018-01-26T14:07:18.054Z,4176
2018-01-26T14:08:28.002Z,4268
2018-01-26T14:09:37.689Z,3888
2018-01-26T14:10:47.429Z,3424
2018-01-26T14:11:57.467Z,2944
2018-01-26T14:13:07.467Z,2812
2018-01-26T14:14:17.259Z,2224
2018-01-26T14:15:26.728Z,1664
2018-01-26T14:16:36.674Z,1352
2018-01-26T14:17:46.118Z,1064
2018-01-26T14:18:56.089Z,1004
2018-01-26T14:20:06.051Z,972
2018-01-26T14:21:15.763Z,988
2018-01-26T14:22:25.467Z,1112
2018-01-26T14:23:35.448Z,1604
2018-01-26T14:24:45.143Z,1972
2018-01-26T14:25:55.091Z,2080
2018-01-26T14:27:05.048Z,1928
2018-01-26T14:28:14.732Z,1976
2018-01-26T14:29:24.435Z,2392
2018-01-26T14:30:34.397Z,2624
2018-01-26T14:31:44.363Z,2556
2018-01-26T14:32:54.067Z,2608
2018-01-26T14:34:03.517Z,2564
2018-01-26T14:35:13.465Z,2324
2018-01-26T14:36:23.168Z,2052
2018-01-26T14:37:33.230Z,1852
2018-01-26T14:38:42.951Z,1764
2018-01-26T14:39:52.919Z,1716
2018-01-26T14:41:02.605Z,1660
2018-01-26T14:42:12.562Z,1644
2018-01-26T14:43:22.258Z,1672
2018-01-26T14:44:32.226Z,1760
2018-01-26T14:45:41.928Z,1948
2018-01-26T14:46:51.893Z,2172
2018-01-26T14:48:01.841Z,2444
2018-01-26T14:49:11.792Z,2724
2018-01-26T14:50:21.744Z,2888
2018-01-26T14:51:31.715Z,2976
2018-01-26T14:52:41.664Z,2968
2018-01-26T14:53:51.606Z,2856
2018-01-26T14:55:01.568Z,2944
2018-01-26T14:56:11.764Z,3264
2018-01-26T14:57:21.477Z,3532
2018-01-26T14:58:31.442Z,3492
2018-01-26T14:59:41.134Z,3392
2018-01-26T15:00:51.088Z,3280
2018-01-26T15:02:00.791Z,3148
2018-01-26T15:03:10.481Z,3000
2018-01-26T15:04:20.163Z,2872
2018-01-26T15:05:29.648Z,2672
2018-01-26T15:06:39.597Z,2396
2018-01-26T15:07:49.319Z,2088
2018-01-26T15:08:59.006Z,1744
2018-01-26T15:10:08.725Z,1452
2018-01-26T15:11:18.175Z,1168
2018-01-26T15:12:28.187Z,956
2018-01-26T15:13:37.892Z,884
2018-01-26T15:14:47.850Z,916
2018-01-26T15:15:57.807Z,900
2018-01-26T15:17:07.759Z,824
2018-01-26T15:18:17.446Z,748
2018-01-26T15:19:27.163Z,672
2018-01-26T15:20:36.607Z,576
2018-01-26T15:21:46.556Z,496
2018-01-26T15:22:56.501Z,452
2018-01-26T15:24:06.448Z,448
2018-01-26T15:25:16.415Z,416
2018-01-26T15:26:26.142Z,372
2018-01-26T15:27:35.837Z,328
2018-01-26T15:28:45.575Z,308
2018-01-26T15:29:55.539Z,312
2018-01-26T15:31:05.500Z,308
2018-01-26T15:32:15.507Z,288
2018-01-26T15:33:25.466Z,268
2018-01-26T15:34:35.429Z,252
2018-01-26T15:35:45.388Z,240
2018-01-26T15:36:54.844Z,232
2018-01-26T15:38:04.809Z,212
2018-01-26T15:39:14.535Z,196
2018-01-26T15:40:24.487Z,172
2018-01-26T15:41:34.437Z,148
2018-01-26T15:42:44.406Z,124
2018-01-26T15:43:54.091Z,112
2018-01-26T15:45:04.031Z,104
2018-01-26T15:46:13.736Z,96
2018-01-26T15:47:23.230Z,80
2018-01-26T15:48:33.185Z,60
2018-01-26T15:49:42.883Z,48
2018-01-26T15:50:52.852Z,44
2018-01-26T15:52:02.794Z,44
2018-01-26T15:53:12.735Z,40
2018-01-26T15:54:22.717Z,36
2018-01-26T15:55:32.666Z,32
2018-01-26T15:56:42.641Z,28
2018-01-26T15:57:52.334Z,24
2018-01-26T15:59:02.295Z,20
2018-01-26T16:00:12.352Z,16
2018-01-26T16:01:22.293Z,12
2018-01-26T16:02:32.243Z,12
2018-01-26T16:03:42.185Z,8
2018-01-26T16:04:52.160Z,8
2018-01-26T16:06:01.859Z,8
2018-01-26T16:07:11.884Z,4
2018-01-26T16:08:21.850Z,4
2018-01-26T16:09:31.800Z,4
2018-01-26T16:10:41.742Z,4
2018-01-26T16:11:51.461Z,4
2018-01-26T16:13:01.423Z,4
2018-01-26T16:14:11.380Z,4
2018-01-26T16:15:21.357Z,4
2018-01-26T16:16:31.312Z,0
2018-01-26T16:17:41.023Z,0